Main page
METAR-TAF:

METAR-TAF

Airports :

Avenger Field

Sweetwater, Texas, United States

latitude: 32-28-02N, longitude: 100-27-59W, elevation: 2378 ft

Current weather observation

The report was made 36 minutes ago, at 12:35 UTC
Wind 8 mph from the East
Temperature 72°F
Humidity 78%
Pressure 30.23 in. Hg
Visibility: 10 miles

METAR: KSWW 201235Z AUTO 08007KT 10SM 22/18 A3023 RMK AO2 T02220178

Time: 08:11 (13:11 UTC)


TAF: missing

Weather observations and forecasts of more than 4000 airports (METAR and TAF reports).

The available stations are represented by yellow and red dots on the map.

Hover mouse over dot to see the name of the station.

Then click to see weather observations and forecasts.

To change the map : click on the green buttons with a black cross to zoom in, on the green button with a dash to zoom out, or on the green arrows for adjacent maps.


METAR-TAF: